Time;durP1;ratioP1;P1;durP2;ratioP2;P2;SDS_P1;SDS_P2;PMS_P1;PMS_P2;Temp;Humidity;BMP_temperature;BMP_pressure;BME280_temperature;BME280_humidity;BME280_pressure;Samples;Min_cycle;Max_cycle;Signal;HPM_P1;HPM_P2
2023/05/27 00:02:42;;;;;;;13.00;6.25;;;;;;;;;;9498774;30;20083;-68
2023/05/27 00:07:36;;;;;;;10.85;6.82;;;;;;;;;;9499371;30;20063;-67
2023/05/27 00:12:29;;;;;;;10.38;7.20;;;;;;;;;;9492073;30;20143;-68
2023/05/27 00:17:23;;;;;;;11.18;7.43;;;;;;;;;;9497658;30;20079;-67
2023/05/27 00:22:17;;;;;;;13.25;6.93;;;;;;;;;;9498267;30;20478;-67
2023/05/27 00:27:10;;;;;;;11.32;7.03;;;;;;;;;;9488907;30;20127;-67
2023/05/27 00:32:04;;;;;;;8.57;7.10;;;;;;;;;;9490379;30;20059;-68
2023/05/27 00:36:58;;;;;;;15.82;7.15;;;;;;;;;;9499706;30;20432;-68
2023/05/27 00:41:51;;;;;;;9.05;7.43;;;;;;;;;;9492557;30;20048;-67
2023/05/27 00:46:45;;;;;;;8.02;7.20;;;;;;;;;;9495402;30;20057;-68
2023/05/27 00:51:38;;;;;;;8.50;6.80;;;;;;;;;;9500774;30;20063;-68
2023/05/27 00:56:32;;;;;;;11.98;7.80;;;;;;;;;;9496398;30;20054;-68
2023/05/27 01:01:25;;;;;;;9.48;7.18;;;;;;;;;;9486542;30;20095;-68
2023/05/27 01:06:36;;;;;;;13.60;8.60;;;;;;;;;;9490246;30;20058;-68
2023/05/27 01:11:34;;;;;;;9.32;7.88;;;;;;;;;;9492140;30;20052;-68
2023/05/27 01:16:30;;;;;;;11.93;7.82;;;;;;;;;;9492988;30;20052;-67
2023/05/27 01:21:25;;;;;;;10.55;7.25;;;;;;;;;;9491152;30;20109;-67
2023/05/27 01:26:18;;;;;;;10.73;7.47;;;;;;;;;;9488924;30;20514;-68
2023/05/27 01:31:16;;;;;;;21.92;7.97;;;;;;;;;;9498803;30;20060;-68
2023/05/27 01:36:15;;;;;;;11.65;7.47;;;;;;;;;;9494420;30;20052;-68
2023/05/27 01:41:09;;;;;;;14.80;8.48;;;;;;;;;;9492970;30;20111;-67
2023/05/27 01:46:03;;;;;;;16.70;9.15;;;;;;;;;;9492565;30;20056;-68
2023/05/27 01:50:56;;;;;;;18.98;9.82;;;;;;;;;;9496140;30;20052;-67
2023/05/27 01:55:51;;;;;;;26.40;12.07;;;;;;;;;;9498330;30;20143;-68
2023/05/27 02:00:45;;;;;;;22.77;13.25;;;;;;;;;;9512649;30;20382;-67
2023/05/27 02:05:40;;;;;;;21.20;13.20;;;;;;;;;;9481413;30;20056;-68
2023/05/27 02:10:33;;;;;;;16.33;14.57;;;;;;;;;;9512354;30;20052;-68
2023/05/27 02:15:27;;;;;;;19.25;14.93;;;;;;;;;;9494293;30;20048;-67
2023/05/27 02:20:22;;;;;;;20.20;15.90;;;;;;;;;;9496392;30;20577;-67
2023/05/27 02:25:17;;;;;;;18.20;15.35;;;;;;;;;;9497822;30;20068;-67
2023/05/27 02:30:13;;;;;;;23.55;17.33;;;;;;;;;;9505304;30;20064;-67
2023/05/27 02:35:07;;;;;;;23.10;16.13;;;;;;;;;;9512777;30;20064;-67
2023/05/27 02:40:00;;;;;;;19.08;14.88;;;;;;;;;;9489439;30;20056;-67
2023/05/27 02:44:57;;;;;;;19.50;13.95;;;;;;;;;;9515695;30;20095;-67
2023/05/27 02:49:51;;;;;;;19.00;13.98;;;;;;;;;;9496715;30;20048;-68
2023/05/27 02:54:44;;;;;;;18.80;13.93;;;;;;;;;;9497985;30;20057;-67
2023/05/27 02:59:37;;;;;;;12.38;11.10;;;;;;;;;;9517475;30;20048;-68
2023/05/27 03:04:31;;;;;;;13.30;11.07;;;;;;;;;;9497456;30;20140;-67
2023/05/27 03:09:24;;;;;;;19.10;11.43;;;;;;;;;;9500418;30;20064;-67
2023/05/27 03:14:17;;;;;;;13.70;11.20;;;;;;;;;;9498420;30;20056;-68
2023/05/27 03:19:11;;;;;;;12.60;11.30;;;;;;;;;;9499180;30;20065;-68
2023/05/27 03:24:04;;;;;;;14.30;11.95;;;;;;;;;;9499555;30;20063;-67
2023/05/27 03:28:59;;;;;;;14.88;12.50;;;;;;;;;;9502250;30;20145;-68
2023/05/27 03:33:53;;;;;;;17.55;12.18;;;;;;;;;;9495914;30;20068;-67
2023/05/27 03:38:45;;;;;;;13.55;11.15;;;;;;;;;;9508346;30;20059;-68
2023/05/27 03:43:39;;;;;;;18.42;12.23;;;;;;;;;;9494596;30;20474;-68
2023/05/27 03:48:32;;;;;;;19.35;12.20;;;;;;;;;;9489288;30;20055;-68
2023/05/27 03:53:26;;;;;;;13.40;10.70;;;;;;;;;;9504807;30;20524;-67
2023/05/27 03:58:19;;;;;;;12.02;9.63;;;;;;;;;;9510492;30;20060;-67
2023/05/27 04:03:15;;;;;;;15.85;9.70;;;;;;;;;;9513313;30;20491;-68
2023/05/27 04:08:13;;;;;;;21.40;14.23;;;;;;;;;;9491853;30;20087;-68
2023/05/27 04:13:06;;;;;;;21.13;11.73;;;;;;;;;;9501318;30;20052;-68
2023/05/27 04:17:59;;;;;;;17.58;10.80;;;;;;;;;;9490959;30;20102;-68
2023/05/27 04:22:52;;;;;;;18.13;12.70;;;;;;;;;;9499525;30;20056;-68
2023/05/27 04:27:47;;;;;;;14.80;9.98;;;;;;;;;;9489969;30;20056;-67
2023/05/27 04:32:43;;;;;;;13.55;9.32;;;;;;;;;;9486731;30;20052;-67
2023/05/27 04:37:40;;;;;;;11.75;8.38;;;;;;;;;;9496941;30;20083;-68
2023/05/27 04:42:38;;;;;;;12.07;8.13;;;;;;;;;;9500136;30;20409;-68
2023/05/27 04:47:32;;;;;;;8.68;7.63;;;;;;;;;;9499479;30;20080;-67
2023/05/27 04:52:25;;;;;;;9.73;7.55;;;;;;;;;;9490508;30;20486;-67
2023/05/27 04:57:19;;;;;;;10.88;7.28;;;;;;;;;;9481534;30;20064;-67
2023/05/27 05:02:25;;;;;;;14.95;8.18;;;;;;;;;;9495956;30;20056;-67
2023/05/27 05:07:40;;;;;;;12.63;8.30;;;;;;;;;;9499481;30;20063;-67
2023/05/27 05:12:37;;;;;;;11.70;9.02;;;;;;;;;;9484489;30;20429;-66
2023/05/27 05:17:31;;;;;;;12.20;8.63;;;;;;;;;;9510720;29;20045;-67
2023/05/27 05:22:26;;;;;;;13.43;9.55;;;;;;;;;;9490078;30;20056;-66
2023/05/27 05:27:20;;;;;;;12.35;8.98;;;;;;;;;;9518485;30;20063;-69
2023/05/27 05:32:14;;;;;;;19.58;8.95;;;;;;;;;;9499178;30;20060;-71
2023/05/27 05:37:07;;;;;;;12.75;10.07;;;;;;;;;;9478430;30;20060;-70
2023/05/27 05:42:01;;;;;;;12.68;9.23;;;;;;;;;;9497310;30;20045;-70
2023/05/27 05:46:54;;;;;;;10.68;8.82;;;;;;;;;;9501747;30;20056;-70
2023/05/27 05:51:50;;;;;;;11.95;9.35;;;;;;;;;;9496858;30;20063;-69
2023/05/27 05:56:43;;;;;;;14.30;10.52;;;;;;;;;;9503865;30;20060;-69
2023/05/27 06:01:36;;;;;;;12.10;9.27;;;;;;;;;;9517910;30;20505;-69
2023/05/27 06:06:33;;;;;;;15.05;11.00;;;;;;;;;;9489463;30;20428;-69
2023/05/27 06:11:41;;;;;;;11.13;8.15;;;;;;;;;;9509594;30;20051;-68
2023/05/27 06:16:36;;;;;;;12.40;8.25;;;;;;;;;;9498855;30;20069;-70
2023/05/27 06:21:32;;;;;;;10.13;8.40;;;;;;;;;;9508803;30;20475;-69
2023/05/27 06:26:44;;;;;;;13.88;9.25;;;;;;;;;;9500587;30;20071;-69
2023/05/27 06:31:37;;;;;;;11.35;8.75;;;;;;;;;;9498764;30;20052;-68
2023/05/27 06:36:31;;;;;;;19.27;11.48;;;;;;;;;;9495787;30;20066;-69
2023/05/27 06:41:24;;;;;;;20.00;14.20;;;;;;;;;;9497863;30;20058;-68
2023/05/27 06:46:38;;;;;;;21.58;16.52;;;;;;;;;;9491387;30;20060;-69
2023/05/27 06:51:39;;;;;;;25.60;20.08;;;;;;;;;;9488258;30;20480;-69
2023/05/27 06:56:32;;;;;;;17.98;15.35;;;;;;;;;;9490222;30;20064;-70
2023/05/27 07:01:45;;;;;;;18.83;14.07;;;;;;;;;;9489767;30;20536;-68
2023/05/27 07:06:39;;;;;;;23.67;14.85;;;;;;;;;;9486542;30;20056;-69
2023/05/27 07:11:33;;;;;;;20.83;16.92;;;;;;;;;;9493800;30;20142;-69
2023/05/27 07:16:32;;;;;;;23.65;18.40;;;;;;;;;;9503751;30;20150;-68
2023/05/27 07:21:26;;;;;;;23.88;16.75;;;;;;;;;;9509491;30;20044;-68
2023/05/27 07:26:21;;;;;;;27.15;18.63;;;;;;;;;;9496540;30;20579;-70
2023/05/27 07:31:17;;;;;;;24.13;16.73;;;;;;;;;;9490700;30;20265;-70
2023/05/27 07:36:17;;;;;;;20.77;17.00;;;;;;;;;;9474819;30;20052;-71
2023/05/27 07:41:10;;;;;;;24.88;17.33;;;;;;;;;;9506962;30;20095;-70
2023/05/27 07:46:03;;;;;;;22.73;17.73;;;;;;;;;;9489473;30;20071;-68
2023/05/27 07:50:59;;;;;;;18.65;16.58;;;;;;;;;;9501505;30;20152;-70
2023/05/27 07:55:53;;;;;;;19.35;12.80;;;;;;;;;;9482501;30;20122;-76
2023/05/27 08:00:47;;;;;;;15.50;12.77;;;;;;;;;;9479415;30;20056;-74
2023/05/27 08:05:41;;;;;;;13.02;11.52;;;;;;;;;;9487257;30;20506;-73
2023/05/27 08:10:46;;;;;;;18.98;12.40;;;;;;;;;;9482111;30;20064;-71
2023/05/27 08:15:59;;;;;;;20.08;9.65;;;;;;;;;;9501938;30;20535;-71
2023/05/27 08:21:16;;;;;;;11.88;10.30;;;;;;;;;;9499771;30;20067;-75
2023/05/27 08:26:27;;;;;;;18.63;12.43;;;;;;;;;;9494063;30;20158;-74
2023/05/27 08:31:33;;;;;;;16.85;14.43;;;;;;;;;;9492832;30;20092;-73
2023/05/27 08:36:27;;;;;;;16.88;13.65;;;;;;;;;;9493120;30;20091;-74
2023/05/27 08:41:22;;;;;;;20.23;14.90;;;;;;;;;;9488545;30;20044;-73
2023/05/27 08:46:14;;;;;;;20.40;16.15;;;;;;;;;;9489442;30;20578;-73
2023/05/27 08:51:10;;;;;;;19.33;17.27;;;;;;;;;;9512836;30;20583;-73
2023/05/27 08:56:05;;;;;;;24.77;15.93;;;;;;;;;;9488146;30;20246;-77
2023/05/27 09:01:01;;;;;;;20.10;14.65;;;;;;;;;;9490857;30;20529;-73
2023/05/27 09:05:55;;;;;;;16.17;14.48;;;;;;;;;;9481677;30;20060;-75
2023/05/27 09:10:49;;;;;;;15.75;13.20;;;;;;;;;;9502228;30;20056;-82
2023/05/27 09:15:43;;;;;;;10.50;8.02;;;;;;;;;;9498221;30;20072;-81
2023/05/27 09:20:37;;;;;;;9.68;8.77;;;;;;;;;;9499678;30;20609;-76
2023/05/27 09:25:30;;;;;;;9.48;6.45;;;;;;;;;;9506014;30;20491;-83
2023/05/27 09:30:26;;;;;;;8.13;7.32;;;;;;;;;;9503547;30;20056;-79
2023/05/27 09:35:21;;;;;;;8.45;6.57;;;;;;;;;;9501275;30;20628;-75
2023/05/27 09:40:16;;;;;;;9.07;5.88;;;;;;;;;;9516142;30;20052;-71
2023/05/27 09:45:14;;;;;;;7.55;6.03;;;;;;;;;;9495824;30;20147;-74
2023/05/27 09:50:14;;;;;;;6.53;5.90;;;;;;;;;;9503652;30;20059;-73
2023/05/27 09:55:09;;;;;;;9.02;7.25;;;;;;;;;;9504758;30;20123;-72
2023/05/27 10:00:11;;;;;;;9.00;5.47;;;;;;;;;;9503921;30;20063;-73
2023/05/27 10:05:09;;;;;;;12.32;6.38;;;;;;;;;;9504436;30;20118;-73
2023/05/27 10:10:09;;;;;;;11.55;6.65;;;;;;;;;;9502558;30;20416;-74
2023/05/27 10:15:03;;;;;;;7.32;4.97;;;;;;;;;;9503212;30;20102;-74
2023/05/27 10:19:57;;;;;;;4.97;4.30;;;;;;;;;;9502943;30;20394;-73
2023/05/27 10:24:53;;;;;;;8.55;4.53;;;;;;;;;;9494844;30;20072;-74
2023/05/27 10:29:57;;;;;;;7.07;3.95;;;;;;;;;;9500314;30;20591;-71
2023/05/27 10:34:52;;;;;;;5.10;4.07;;;;;;;;;;9500577;30;20060;-71
2023/05/27 10:39:56;;;;;;;5.70;3.85;;;;;;;;;;9502085;30;20052;-70
2023/05/27 10:44:49;;;;;;;5.15;3.90;;;;;;;;;;9502597;30;20071;-71
2023/05/27 10:49:47;;;;;;;7.85;4.15;;;;;;;;;;9515817;30;20152;-69
2023/05/27 10:54:42;;;;;;;5.32;3.92;;;;;;;;;;9498362;30;20147;-69
2023/05/27 10:59:52;;;;;;;7.80;3.92;;;;;;;;;;9497223;30;20056;-69
2023/05/27 11:04:52;;;;;;;5.82;3.90;;;;;;;;;;9498932;30;20056;-70
2023/05/27 11:09:46;;;;;;;8.07;4.85;;;;;;;;;;9497315;30;20459;-72
2023/05/27 11:14:40;;;;;;;10.73;4.10;;;;;;;;;;9493869;30;20084;-70
2023/05/27 11:19:34;;;;;;;6.90;4.28;;;;;;;;;;9495549;30;20525;-68
2023/05/27 11:24:27;;;;;;;5.60;4.75;;;;;;;;;;9497834;30;20056;-74
2023/05/27 11:29:22;;;;;;;7.97;4.15;;;;;;;;;;9501904;30;20059;-69
2023/05/27 11:34:18;;;;;;;8.97;4.10;;;;;;;;;;9505298;30;20086;-69
2023/05/27 11:39:16;;;;;;;6.15;4.03;;;;;;;;;;9505681;30;20509;-69
2023/05/27 11:44:10;;;;;;;6.25;3.95;;;;;;;;;;9507286;30;20052;-69
2023/05/27 11:49:04;;;;;;;5.68;3.97;;;;;;;;;;9505901;30;20127;-69
2023/05/27 11:53:58;;;;;;;;;;;;;;;;;;9473621;30;20323;-69
2023/05/27 11:58:51;;;;;;;8.55;4.28;;;;;;;;;;9503515;30;19926;-67
2023/05/27 12:03:43;;;;;;;6.72;4.35;;;;;;;;;;9505392;30;20064;-67
2023/05/27 12:08:38;;;;;;;6.18;4.07;;;;;;;;;;9503372;30;20060;-67
2023/05/27 12:13:32;;;;;;;4.65;3.50;;;;;;;;;;9505267;30;20052;-67
2023/05/27 12:18:26;;;;;;;7.93;4.47;;;;;;;;;;9505366;30;20056;-67
2023/05/27 12:23:19;;;;;;;7.63;4.28;;;;;;;;;;9503830;30;20094;-67
2023/05/27 12:28:14;;;;;;;4.57;3.80;;;;;;;;;;9500127;30;20119;-66
2023/05/27 12:33:08;;;;;;;5.72;3.63;;;;;;;;;;9493758;30;20075;-67
2023/05/27 12:38:01;;;;;;;5.22;3.80;;;;;;;;;;9490768;30;20067;-67
2023/05/27 12:42:54;;;;;;;6.65;3.67;;;;;;;;;;9498073;30;20055;-66
2023/05/27 12:47:47;;;;;;;7.03;3.70;;;;;;;;;;9501131;30;20062;-67
2023/05/27 12:52:46;;;;;;;4.57;3.75;;;;;;;;;;9500359;30;20076;-67
2023/05/27 12:57:39;;;;;;;5.80;4.18;;;;;;;;;;9498540;30;20064;-67
2023/05/27 13:02:33;;;;;;;6.87;3.93;;;;;;;;;;9495494;30;20060;-68
2023/05/27 13:07:27;;;;;;;4.05;3.65;;;;;;;;;;9487639;30;20048;-67
2023/05/27 13:12:21;;;;;;;5.72;3.63;;;;;;;;;;9480510;30;20060;-67
2023/05/27 13:17:16;;;;;;;6.60;3.80;;;;;;;;;;9488745;30;20060;-67
2023/05/27 13:22:09;;;;;;;7.15;4.43;;;;;;;;;;9490535;30;20056;-68
2023/05/27 13:27:04;;;;;;;7.07;4.75;;;;;;;;;;9494837;30;20147;-68
2023/05/27 13:31:57;;;;;;;6.95;4.18;;;;;;;;;;9493083;30;20421;-68
2023/05/27 13:36:50;;;;;;;10.32;4.30;;;;;;;;;;9506744;30;20056;-67
2023/05/27 13:41:43;;;;;;;4.20;3.35;;;;;;;;;;9493256;30;20521;-67
2023/05/27 13:46:36;;;;;;;5.20;3.97;;;;;;;;;;9496020;30;20155;-67
2023/05/27 13:51:31;;;;;;;4.70;3.83;;;;;;;;;;9491866;30;20135;-67
2023/05/27 13:56:26;;;;;;;7.00;4.25;;;;;;;;;;9496144;30;20048;-67
2023/05/27 14:01:19;;;;;;;5.80;4.35;;;;;;;;;;9508667;30;20060;-67
2023/05/27 14:06:13;;;;;;;4.05;3.65;;;;;;;;;;9496607;30;20114;-67
2023/05/27 14:11:07;;;;;;;5.78;4.35;;;;;;;;;;9501723;29;20135;-66
2023/05/27 14:15:59;;;;;;;9.68;4.25;;;;;;;;;;9496347;29;20087;-66
2023/05/27 14:20:53;;;;;;;7.00;4.22;;;;;;;;;;9497751;30;20110;-66
2023/05/27 14:25:46;;;;;;;7.65;4.45;;;;;;;;;;9495895;30;20061;-66
2023/05/27 14:30:41;;;;;;;8.25;4.43;;;;;;;;;;9496357;30;20052;-66
2023/05/27 14:35:37;;;;;;;6.63;4.35;;;;;;;;;;9499619;30;20143;-66
2023/05/27 14:40:31;;;;;;;8.15;4.72;;;;;;;;;;9502859;30;20060;-66
2023/05/27 14:45:25;;;;;;;7.20;3.95;;;;;;;;;;9495187;30;20086;-67
2023/05/27 14:50:22;;;;;;;6.97;4.30;;;;;;;;;;9488035;30;20483;-67
2023/05/27 14:55:16;;;;;;;8.95;4.78;;;;;;;;;;9495723;30;20052;-70
2023/05/27 15:00:11;;;;;;;15.57;5.75;;;;;;;;;;9495206;30;20438;-67
2023/05/27 15:05:06;;;;;;;5.97;4.90;;;;;;;;;;9497050;30;20080;-70
2023/05/27 15:09:59;;;;;;;5.20;4.70;;;;;;;;;;9495622;30;20052;-68
2023/05/27 15:14:53;;;;;;;6.88;4.88;;;;;;;;;;9497363;30;20090;-69
2023/05/27 15:19:49;;;;;;;6.00;4.93;;;;;;;;;;9492570;30;20075;-70
2023/05/27 15:24:42;;;;;;;6.28;4.45;;;;;;;;;;9501376;30;20531;-67
2023/05/27 15:29:35;;;;;;;6.22;4.90;;;;;;;;;;9498800;30;20056;-69
2023/05/27 15:34:29;;;;;;;6.70;4.95;;;;;;;;;;9496219;30;20605;-69
2023/05/27 15:39:22;;;;;;;7.35;5.00;;;;;;;;;;9493736;30;20052;-70
2023/05/27 15:44:16;;;;;;;5.50;5.00;;;;;;;;;;9495595;30;20575;-70
2023/05/27 15:49:13;;;;;;;6.80;4.80;;;;;;;;;;9498046;30;20147;-75
2023/05/27 15:54:07;;;;;;;8.20;5.20;;;;;;;;;;9496570;30;20524;-71
2023/05/27 15:59:03;;;;;;;7.30;5.55;;;;;;;;;;9497519;30;20505;-71
2023/05/27 16:03:57;;;;;;;7.93;5.35;;;;;;;;;;9494915;30;20127;-71
2023/05/27 16:08:50;;;;;;;6.82;5.32;;;;;;;;;;9492526;30;20596;-71
2023/05/27 16:13:44;;;;;;;7.82;5.85;;;;;;;;;;9494949;30;20064;-72
2023/05/27 16:18:38;;;;;;;6.78;5.43;;;;;;;;;;9493905;30;20067;-70
2023/05/27 16:23:31;;;;;;;6.55;5.85;;;;;;;;;;9503714;30;20179;-73
2023/05/27 16:28:24;;;;;;;7.00;6.30;;;;;;;;;;9502484;30;20060;-78
2023/05/27 16:33:18;;;;;;;7.60;4.97;;;;;;;;;;9502971;30;20179;-73
2023/05/27 16:38:12;;;;;;;8.18;5.80;;;;;;;;;;9504629;30;20634;-78
2023/05/27 16:43:06;;;;;;;8.55;5.35;;;;;;;;;;9498647;30;20082;-78
2023/05/27 16:47:58;;;;;;;7.03;5.30;;;;;;;;;;9493919;30;20056;-77
2023/05/27 16:52:52;;;;;;;7.40;5.43;;;;;;;;;;9485051;30;20068;-77
2023/05/27 16:57:46;;;;;;;9.43;5.93;;;;;;;;;;9511055;30;20151;-77
2023/05/27 17:02:40;;;;;;;7.15;5.93;;;;;;;;;;9487813;30;20527;-77
2023/05/27 17:07:34;;;;;;;9.20;6.20;;;;;;;;;;9487687;30;20110;-77
2023/05/27 17:12:27;;;;;;;8.60;5.60;;;;;;;;;;9493668;30;20052;-76
2023/05/27 17:17:23;;;;;;;6.15;5.50;;;;;;;;;;9487723;30;20084;-77
2023/05/27 17:22:16;;;;;;;6.72;5.38;;;;;;;;;;9494219;30;20052;-77
2023/05/27 17:27:10;;;;;;;7.75;5.82;;;;;;;;;;9492920;30;20080;-78
2023/05/27 17:32:05;;;;;;;6.78;5.63;;;;;;;;;;9494614;30;20056;-78
2023/05/27 17:36:58;;;;;;;8.07;5.57;;;;;;;;;;9482949;30;20060;-78
2023/05/27 17:41:51;;;;;;;11.73;6.13;;;;;;;;;;9497682;30;20060;-75
2023/05/27 17:46:44;;;;;;;6.55;5.82;;;;;;;;;;9491891;30;20064;-75
2023/05/27 17:51:38;;;;;;;10.27;6.25;;;;;;;;;;9490542;30;20084;-74
2023/05/27 17:56:32;;;;;;;12.38;8.50;;;;;;;;;;9497635;30;20147;-74
2023/05/27 18:01:25;;;;;;;8.93;7.00;;;;;;;;;;9491723;30;20135;-74
2023/05/27 18:06:19;;;;;;;10.20;6.55;;;;;;;;;;9495830;30;20055;-72
2023/05/27 18:11:13;;;;;;;10.02;6.40;;;;;;;;;;9499380;30;20141;-73
2023/05/27 18:16:07;;;;;;;7.85;5.75;;;;;;;;;;9508477;30;20077;-72
2023/05/27 18:21:01;;;;;;;9.63;6.38;;;;;;;;;;9503867;30;20048;-71
2023/05/27 18:25:54;;;;;;;13.00;8.52;;;;;;;;;;9507597;30;20082;-72
2023/05/27 18:30:47;;;;;;;12.15;10.40;;;;;;;;;;9507144;30;20554;-73
2023/05/27 18:35:40;;;;;;;11.63;8.60;;;;;;;;;;9520965;30;20068;-72
2023/05/27 18:40:35;;;;;;;8.27;7.13;;;;;;;;;;9505599;30;20494;-72
2023/05/27 18:45:52;;;;;;;10.15;7.43;;;;;;;;;;9496008;30;20139;-72
2023/05/27 18:50:49;;;;;;;13.80;9.85;;;;;;;;;;9483627;30;20045;-72
2023/05/27 18:55:43;;;;;;;12.93;10.18;;;;;;;;;;9498659;30;20064;-72
2023/05/27 19:00:37;;;;;;;13.43;9.32;;;;;;;;;;9498524;30;20060;-73
2023/05/27 19:05:31;;;;;;;10.88;8.38;;;;;;;;;;9503531;30;20064;-71
2023/05/27 19:10:25;;;;;;;10.90;6.45;;;;;;;;;;9493625;30;20099;-71
2023/05/27 19:15:20;;;;;;;8.18;7.38;;;;;;;;;;9500282;30;20137;-71
2023/05/27 19:20:13;;;;;;;9.55;6.93;;;;;;;;;;9507455;30;20056;-71
2023/05/27 19:25:08;;;;;;;12.48;7.30;;;;;;;;;;9506832;30;20056;-71
2023/05/27 19:30:02;;;;;;;11.98;7.03;;;;;;;;;;9506861;30;20468;-71
2023/05/27 19:34:59;;;;;;;8.55;7.10;;;;;;;;;;9492036;30;20771;-71
2023/05/27 19:39:57;;;;;;;9.23;7.00;;;;;;;;;;9499743;29;20691;-71
2023/05/27 19:44:56;;;;;;;8.73;7.72;;;;;;;;;;9489266;30;20072;-70
2023/05/27 19:49:50;;;;;;;9.55;8.25;;;;;;;;;;9501906;30;20067;-70
2023/05/27 19:54:45;;;;;;;11.82;8.80;;;;;;;;;;9490305;30;20406;-70
2023/05/27 19:59:38;;;;;;;11.52;7.82;;;;;;;;;;9467898;30;20049;-72
2023/05/27 20:04:33;;;;;;;10.85;8.20;;;;;;;;;;9490680;30;20057;-67
2023/05/27 20:09:26;;;;;;;9.98;7.72;;;;;;;;;;9487318;30;20064;-65
2023/05/27 20:14:19;;;;;;;14.85;8.48;;;;;;;;;;9485571;30;20060;-66
2023/05/27 20:19:12;;;;;;;10.43;9.13;;;;;;;;;;9487687;30;20068;-65
2023/05/27 20:24:06;;;;;;;11.10;9.30;;;;;;;;;;9484297;30;20114;-67
2023/05/27 20:28:59;;;;;;;11.73;9.30;;;;;;;;;;9485104;30;20064;-65
2023/05/27 20:33:53;;;;;;;10.48;9.35;;;;;;;;;;9489980;30;20076;-66
2023/05/27 20:38:46;;;;;;;12.93;8.73;;;;;;;;;;9488194;30;20118;-65
2023/05/27 20:43:41;;;;;;;13.25;8.98;;;;;;;;;;9489290;30;20052;-65
2023/05/27 20:48:35;;;;;;;12.93;7.40;;;;;;;;;;9480806;30;20070;-65
2023/05/27 20:53:29;;;;;;;13.43;9.32;;;;;;;;;;9490729;30;20113;-69
2023/05/27 20:58:24;;;;;;;15.50;8.50;;;;;;;;;;9488005;30;20068;-74
2023/05/27 21:03:19;;;;;;;10.98;8.35;;;;;;;;;;9492713;30;20845;-71
2023/05/27 21:08:13;;;;;;;14.25;8.88;;;;;;;;;;9498731;30;20080;-74
2023/05/27 21:13:05;;;;;;;14.68;7.97;;;;;;;;;;9491925;30;20115;-76
2023/05/27 21:17:58;;;;;;;11.18;8.70;;;;;;;;;;9498191;30;20056;-75
2023/05/27 21:22:53;;;;;;;17.20;8.07;;;;;;;;;;9496728;30;20421;-73
2023/05/27 21:27:47;;;;;;;12.50;7.70;;;;;;;;;;9501590;30;20532;-73
2023/05/27 21:32:40;;;;;;;9.23;8.25;;;;;;;;;;9488912;30;20535;-73
2023/05/27 21:37:34;;;;;;;11.10;7.18;;;;;;;;;;9497871;30;20059;-72
2023/05/27 21:42:27;;;;;;;11.57;7.88;;;;;;;;;;9502909;30;20519;-73
2023/05/27 21:47:21;;;;;;;9.07;7.60;;;;;;;;;;9510164;30;20060;-72
2023/05/27 21:52:17;;;;;;;11.98;8.35;;;;;;;;;;9504666;30;20476;-72
2023/05/27 21:57:14;;;;;;;11.52;8.10;;;;;;;;;;9512612;30;20139;-72
2023/05/27 22:02:07;;;;;;;11.85;7.45;;;;;;;;;;9517223;30;20087;-72
2023/05/27 22:07:01;;;;;;;14.05;7.72;;;;;;;;;;9495730;30;20060;-73
2023/05/27 22:11:54;;;;;;;9.45;7.65;;;;;;;;;;9490888;30;20063;-72
2023/05/27 22:16:48;;;;;;;8.75;7.45;;;;;;;;;;9503056;30;20060;-73
2023/05/27 22:21:42;;;;;;;9.00;7.32;;;;;;;;;;9513472;30;20486;-73
2023/05/27 22:26:36;;;;;;;9.55;7.90;;;;;;;;;;9522646;30;20105;-72
2023/05/27 22:31:30;;;;;;;11.77;7.20;;;;;;;;;;9532692;30;20056;-73
2023/05/27 22:36:23;;;;;;;9.40;7.15;;;;;;;;;;9483836;30;20421;-72
2023/05/27 22:41:16;;;;;;;10.32;7.20;;;;;;;;;;9472356;30;20417;-73
2023/05/27 22:46:13;;;;;;;9.32;8.35;;;;;;;;;;9492331;30;20143;-73
2023/05/27 22:51:07;;;;;;;16.33;10.85;;;;;;;;;;9506297;30;20052;-72
2023/05/27 22:56:00;;;;;;;12.18;10.98;;;;;;;;;;9506730;30;20064;-73
2023/05/27 23:00:55;;;;;;;8.63;7.68;;;;;;;;;;9477600;30;20056;-72
2023/05/27 23:05:48;;;;;;;12.82;8.18;;;;;;;;;;9495760;30;20087;-72
2023/05/27 23:10:41;;;;;;;9.13;8.10;;;;;;;;;;9516347;30;20052;-72
2023/05/27 23:15:36;;;;;;;12.13;8.63;;;;;;;;;;9501106;30;20091;-73
2023/05/27 23:20:29;;;;;;;8.75;7.50;;;;;;;;;;9507177;30;20140;-73
2023/05/27 23:25:23;;;;;;;8.77;6.72;;;;;;;;;;9506399;30;20060;-73
2023/05/27 23:30:16;;;;;;;16.30;8.38;;;;;;;;;;9489656;30;20064;-72
2023/05/27 23:35:10;;;;;;;10.88;7.53;;;;;;;;;;9480566;30;20080;-73
2023/05/27 23:40:05;;;;;;;9.30;7.13;;;;;;;;;;9502050;30;20413;-72
2023/05/27 23:44:59;;;;;;;8.45;7.55;;;;;;;;;;9507054;30;20076;-73
2023/05/27 23:49:52;;;;;;;10.35;7.55;;;;;;;;;;9506789;30;20063;-73
2023/05/27 23:54:46;;;;;;;15.95;8.43;;;;;;;;;;9512719;30;20055;-73
2023/05/27 23:59:40;;;;;;;9.00;7.10;;;;;;;;;;9497776;30;20525;-73
